Time;durP1;ratioP1;P1;durP2;ratioP2;P2;SDS_P1;SDS_P2;PMS_P1;PMS_P2;Temp;Humidity;BMP_temperature;BMP_pressure;BME280_temperature;BME280_humidity;BME280_pressure;Samples;Min_cycle;Max_cycle;Signal;HPM_P1;HPM_P2
2023/01/11 00:01:21;;;;;;;9.43;7.97;;;8.90;99.90;;;;;;5083619;27;20032;-83
2023/01/11 00:03:47;;;;;;;8.93;7.72;;;9.00;99.90;;;;;;5091737;28;20422;-83
2023/01/11 00:06:13;;;;;;;9.68;7.72;;;9.00;99.90;;;;;;5092204;28;20046;-82
2023/01/11 00:08:39;;;;;;;9.77;7.88;;;9.00;99.90;;;;;;5098259;27;20033;-84
2023/01/11 00:11:11;;;;;;;9.77;8.77;;;9.00;99.90;;;;;;5130680;27;20043;-84
2023/01/11 00:13:37;;;;;;;10.30;8.80;;;9.00;99.90;;;;;;5112916;28;20039;-83
2023/01/11 00:16:07;;;;;;;10.95;8.95;;;9.00;99.90;;;;;;5102887;27;22088;-83
2023/01/11 00:18:32;;;;;;;10.60;8.68;;;9.00;99.90;;;;;;5130859;27;20103;-83
2023/01/11 00:21:04;;;;;;;10.63;9.13;;;9.00;99.90;;;;;;5130443;27;20031;-83
2023/01/11 00:23:30;;;;;;;10.00;8.57;;;9.00;99.90;;;;;;5131085;27;20082;-83
2023/01/11 00:25:55;;;;;;;9.93;8.32;;;9.10;99.90;;;;;;5127859;28;20088;-83
2023/01/11 00:28:21;;;;;;;9.75;8.27;;;9.10;99.90;;;;;;5108122;28;20035;-83
2023/01/11 00:30:48;;;;;;;10.25;8.00;;;9.10;99.90;;;;;;5111993;28;20042;-83
2023/01/11 00:33:13;;;;;;;9.57;8.48;;;9.10;99.90;;;;;;5103434;28;20032;-83
2023/01/11 00:35:39;;;;;;;10.07;8.32;;;9.10;99.90;;;;;;5092273;28;20123;-81
2023/01/11 00:38:04;;;;;;;9.45;8.32;;;9.20;99.90;;;;;;5091839;28;20047;-83
2023/01/11 00:40:30;;;;;;;9.77;8.35;;;9.20;99.90;;;;;;5092337;28;20097;-83
2023/01/11 00:48:24;;;;;;;9.93;8.02;;;9.20;99.90;;;;;;5119264;28;20050;-83
2023/01/11 00:50:53;;;;;;;10.23;7.93;;;9.20;99.90;;;;;;5112624;28;20090;-83
2023/01/11 00:53:19;;;;;;;9.38;7.90;;;9.30;99.90;;;;;;5130370;28;20039;-84
2023/01/11 00:55:45;;;;;;;9.95;8.25;;;9.30;99.90;;;;;;5111926;28;20035;-83
2023/01/11 00:58:11;;;;;;;10.93;8.63;;;9.30;99.90;;;;;;5111252;28;20035;-83
2023/01/11 01:00:36;;;;;;;9.38;8.00;;;9.40;99.90;;;;;;5110988;28;20035;-82
2023/01/11 01:03:02;;;;;;;11.73;8.70;;;9.30;99.90;;;;;;5098717;28;20051;-83
2023/01/11 01:05:28;;;;;;;9.52;8.23;;;9.40;99.90;;;;;;5124188;28;20043;-84
2023/01/11 01:07:53;;;;;;;9.93;8.43;;;9.40;99.90;;;;;;5130552;28;20038;-83
2023/01/11 01:10:20;;;;;;;9.73;8.35;;;9.40;99.90;;;;;;5112159;28;20477;-84
2023/01/11 01:15:30;;;;;;;10.80;8.30;;;9.50;99.90;;;;;;5114244;28;20420;-84
2023/01/11 01:17:56;;;;;;;10.20;8.52;;;9.50;99.90;;;;;;5110877;28;20088;-83
2023/01/11 01:20:23;;;;;;;9.95;8.63;;;9.50;99.90;;;;;;5111927;28;20043;-83
2023/01/11 01:22:49;;;;;;;10.00;8.98;;;9.50;99.90;;;;;;5140852;27;20054;-82
2023/01/11 01:25:15;;;;;;;9.52;8.10;;;9.50;99.90;;;;;;5091483;28;20093;-83
2023/01/11 01:27:41;;;;;;;10.88;9.10;;;9.60;99.90;;;;;;5106795;28;20039;-83
2023/01/11 01:30:07;;;;;;;10.88;9.25;;;9.60;99.90;;;;;;5094179;28;20047;-83
2023/01/11 01:32:33;;;;;;;12.10;10.00;;;9.60;99.90;;;;;;5116923;28;20067;-82
2023/01/11 01:34:58;;;;;;;11.00;8.93;;;9.60;99.90;;;;;;5095001;28;20459;-83
2023/01/11 01:37:25;;;;;;;10.52;9.02;;;9.60;99.90;;;;;;5113686;28;20491;-84
2023/01/11 01:39:51;;;;;;;10.50;9.40;;;9.60;99.90;;;;;;5094984;28;20036;-83
2023/01/11 01:42:19;;;;;;;10.88;9.32;;;9.60;99.90;;;;;;5109169;27;20534;-84
2023/01/11 01:44:59;;;;;;;12.13;9.57;;;9.70;99.90;;;;;;5133518;27;20106;-83
2023/01/11 01:47:34;;;;;;;12.15;9.60;;;9.70;99.90;;;;;;5114683;27;20039;-82
2023/01/11 01:50:05;;;;;;;11.85;9.50;;;9.70;99.90;;;;;;5133474;27;20074;-83
2023/01/11 01:52:33;;;;;;;11.65;9.27;;;9.80;99.90;;;;;;5098827;27;20035;-84
2023/01/11 01:55:03;;;;;;;10.38;8.98;;;9.80;99.90;;;;;;5132420;27;20125;-85
2023/01/11 01:57:34;;;;;;;11.83;9.97;;;9.80;99.90;;;;;;5115822;27;20039;-85
2023/01/11 02:00:04;;;;;;;10.90;9.00;;;9.80;99.90;;;;;;5113801;27;20475;-84
2023/01/11 02:02:30;;;;;;;10.20;8.77;;;9.80;99.90;;;;;;5129269;27;20042;-83
2023/01/11 02:04:57;;;;;;;10.52;8.85;;;9.80;99.90;;;;;;5113351;27;20031;-84
2023/01/11 02:07:32;;;;;;;10.15;8.88;;;9.90;99.90;;;;;;5115498;27;20100;-84
2023/01/11 02:10:08;;;;;;;12.00;9.73;;;9.80;99.90;;;;;;5149228;27;20062;-85
2023/01/11 02:12:42;;;;;;;12.05;9.35;;;9.90;99.90;;;;;;5112845;27;20043;-85
2023/01/11 02:15:09;;;;;;;10.27;9.18;;;9.90;99.90;;;;;;5113316;27;20114;-85
2023/01/11 02:17:35;;;;;;;10.95;9.27;;;9.90;99.90;;;;;;5115481;27;20046;-84
2023/01/11 02:20:07;;;;;;;10.38;8.75;;;9.90;99.90;;;;;;5114526;27;20032;-84
2023/01/11 02:22:38;;;;;;;10.15;8.82;;;10.00;99.90;;;;;;5113423;27;20051;-85
2023/01/11 02:25:10;;;;;;;9.93;8.60;;;10.00;99.90;;;;;;5132779;27;20403;-85
2023/01/11 02:28:01;;;;;;;10.50;8.27;;;10.00;99.90;;;;;;5112708;27;20499;-85
2023/01/11 02:30:52;;;;;;;10.30;7.95;;;10.00;99.90;;;;;;5112676;28;20484;-85
2023/01/11 02:33:36;;;;;;;10.02;8.15;;;10.10;99.90;;;;;;5129425;27;20047;-84
2023/01/11 02:36:16;;;;;;;10.40;7.82;;;10.10;99.90;;;;;;5112014;28;20519;-85
2023/01/11 02:38:50;;;;;;;10.70;8.15;;;10.10;99.90;;;;;;5130308;27;20046;-85
2023/01/11 02:45:00;;;;;;;10.18;7.22;;;10.10;99.90;;;;;;5148758;27;20234;-85
2023/01/11 02:45:04;;;;;;;10.52;7.95;;;10.10;99.90;;;;;;5115304;27;20059;-84
2023/01/11 02:47:17;;;;;;;9.55;7.75;;;10.10;99.90;;;;;;5090953;28;20057;-85
2023/01/11 02:49:55;;;;;;;9.13;7.55;;;10.10;99.90;;;;;;5094027;27;20042;-85
2023/01/11 02:52:35;;;;;;;9.25;7.57;;;10.10;99.90;;;;;;5096637;27;20050;-85
2023/01/11 02:55:03;;;;;;;9.70;7.63;;;10.20;99.90;;;;;;5132468;27;20386;-85
2023/01/11 02:57:30;;;;;;;9.57;7.28;;;10.20;99.90;;;;;;5113466;27;20114;-86
2023/01/11 02:59:57;;;;;;;9.23;7.45;;;10.20;99.90;;;;;;5114027;27;20487;-85
2023/01/11 03:02:23;;;;;;;8.95;7.05;;;10.20;99.90;;;;;;5132324;27;20043;-85
2023/01/11 03:04:49;;;;;;;9.38;7.38;;;10.30;99.90;;;;;;5112420;27;20544;-85
2023/01/11 03:07:20;;;;;;;9.15;7.25;;;10.30;99.90;;;;;;5113921;27;20051;-86
2023/01/11 03:09:55;;;;;;;;;;;10.30;99.90;;;;;;5114486;27;20039;-85
2023/01/11 03:12:50;;;;;;;9.00;6.57;;;10.30;99.90;;;;;;5131027;27;19915;-86
2023/01/11 03:15:34;;;;;;;8.45;6.72;;;10.30;99.90;;;;;;5114154;27;20043;-86
2023/01/11 03:18:35;;;;;;;10.32;6.95;;;10.30;99.90;;;;;;5112698;27;20436;-86
2023/01/11 03:21:19;;;;;;;8.88;6.65;;;10.30;99.90;;;;;;5081593;27;20047;-86
2023/01/11 03:24:00;;;;;;;9.38;6.60;;;10.30;99.90;;;;;;5113341;27;20055;-86
2023/01/11 03:26:55;;;;;;;10.60;6.55;;;10.30;99.90;;;;;;5094690;27;20035;-86
2023/01/11 03:29:32;;;;;;;8.25;6.28;;;10.30;99.90;;;;;;5103663;27;20068;-85
2023/01/11 03:32:09;;;;;;;8.75;5.80;;;10.30;99.90;;;;;;5131623;27;20047;-85
2023/01/11 03:34:47;;;;;;;8.88;5.47;;;10.30;99.90;;;;;;5112705;27;20455;-85
2023/01/11 03:37:24;;;;;;;7.95;5.60;;;10.30;99.90;;;;;;5113637;27;20047;-86
2023/01/11 03:40:39;;;;;;;8.50;5.53;;;10.40;99.90;;;;;;5093066;28;20039;-85
2023/01/11 03:43:12;;;;;;;9.25;5.15;;;10.40;99.90;;;;;;5106236;27;20135;-85
2023/01/11 03:46:09;;;;;;;7.30;4.60;;;10.40;99.90;;;;;;5111439;27;20043;-85
2023/01/11 03:48:56;;;;;;;7.28;4.43;;;10.50;99.90;;;;;;5127621;27;20083;-85
2023/01/11 03:51:26;;;;;;;6.47;3.97;;;10.50;99.90;;;;;;5127135;27;20455;-85
2023/01/11 03:53:57;;;;;;;7.23;4.33;;;10.50;99.90;;;;;;5092907;28;20043;-86
2023/01/11 03:56:30;;;;;;;6.10;3.63;;;10.60;99.90;;;;;;5092154;27;20293;-85
2023/01/11 03:58:56;;;;;;;5.90;3.40;;;10.60;99.90;;;;;;5111278;27;20030;-85
2023/01/11 04:01:23;;;;;;;6.18;3.10;;;10.60;99.90;;;;;;5130454;27;20125;-84
2023/01/11 04:03:49;;;;;;;6.38;3.40;;;10.60;99.90;;;;;;5096839;27;20046;-84
2023/01/11 04:06:15;;;;;;;4.78;2.83;;;10.70;99.90;;;;;;5113028;28;20035;-85
2023/01/11 04:08:41;;;;;;;6.05;2.70;;;10.70;99.90;;;;;;5147439;27;20056;-84
2023/01/11 04:11:06;;;;;;;4.63;2.35;;;10.70;99.90;;;;;;5112075;27;20046;-85
2023/01/11 04:13:32;;;;;;;5.07;2.70;;;10.70;99.90;;;;;;5083230;28;20054;-85
2023/01/11 04:15:58;;;;;;;4.20;2.22;;;10.70;99.90;;;;;;5091780;28;20043;-85
2023/01/11 04:18:24;;;;;;;4.28;2.53;;;10.80;99.90;;;;;;5092749;28;20035;-86
2023/01/11 04:20:50;;;;;;;4.28;2.60;;;10.80;99.90;;;;;;5075384;28;20040;-85
2023/01/11 04:23:15;;;;;;;5.80;2.92;;;10.90;99.90;;;;;;5091798;28;20135;-85
2023/01/11 04:25:41;;;;;;;5.43;3.10;;;10.90;99.90;;;;;;5110484;28;20048;-85
2023/01/11 04:28:07;;;;;;;4.88;2.90;;;11.00;99.90;;;;;;5105484;28;20079;-85
2023/01/11 04:30:32;;;;;;;5.32;2.78;;;10.90;99.90;;;;;;5130057;28;20130;-85
2023/01/11 04:32:58;;;;;;;5.70;3.05;;;10.90;99.90;;;;;;5130515;28;20027;-85
2023/01/11 04:35:25;;;;;;;6.00;3.28;;;10.90;99.90;;;;;;5112669;28;20043;-85
2023/01/11 04:37:57;;;;;;;6.57;3.50;;;10.90;99.90;;;;;;5130837;28;20130;-85
2023/01/11 04:40:24;;;;;;;6.60;3.65;;;11.00;99.90;;;;;;5112053;28;20074;-85
2023/01/11 04:42:49;;;;;;;7.57;3.75;;;11.00;99.90;;;;;;5133382;27;20036;-85
2023/01/11 04:45:15;;;;;;;7.78;4.03;;;11.00;99.90;;;;;;5091976;28;20035;-85
2023/01/11 04:47:41;;;;;;;8.35;4.07;;;11.10;99.90;;;;;;5092341;28;20372;-85
2023/01/11 04:50:07;;;;;;;8.40;4.50;;;11.20;99.90;;;;;;5092056;28;20468;-84
2023/01/11 04:52:33;;;;;;;8.13;4.20;;;11.20;99.90;;;;;;5109862;28;20046;-85
2023/01/11 04:54:59;;;;;;;8.48;5.03;;;11.20;99.90;;;;;;5091239;28;20131;-85
2023/01/11 04:57:24;;;;;;;8.90;5.13;;;11.10;99.90;;;;;;5106040;28;20110;-84
2023/01/11 04:59:50;;;;;;;9.27;5.25;;;11.10;99.90;;;;;;5112063;28;20420;-84
2023/01/11 05:02:16;;;;;;;8.93;5.88;;;11.20;99.90;;;;;;5130791;28;20034;-85
2023/01/11 05:04:42;;;;;;;10.82;6.03;;;11.20;99.90;;;;;;5105586;28;20039;-85
2023/01/11 05:07:08;;;;;;;10.63;6.20;;;11.20;99.90;;;;;;5110361;27;20046;-85
2023/01/11 05:09:34;;;;;;;12.55;6.18;;;11.30;99.90;;;;;;5134815;27;20407;-84
2023/01/11 05:12:00;;;;;;;10.70;5.68;;;11.40;99.90;;;;;;5133242;27;20495;-84
2023/01/11 05:14:25;;;;;;;13.40;5.95;;;11.40;99.90;;;;;;5113996;28;20063;-86
2023/01/11 05:16:51;;;;;;;13.10;5.32;;;11.30;99.90;;;;;;5113866;28;20066;-85
2023/01/11 05:19:17;;;;;;;12.30;4.78;;;11.40;99.90;;;;;;5095904;28;20043;-84
2023/01/11 05:21:43;;;;;;;12.60;4.72;;;11.40;99.90;;;;;;5113696;27;20043;-85
2023/01/11 05:24:14;;;;;;;13.00;4.22;;;11.40;99.90;;;;;;5095041;28;20058;-85
2023/01/11 05:26:42;;;;;;;;;;;11.40;99.90;;;;;;5096479;28;20035;-84
2023/01/11 05:29:10;;;;;;;19.77;5.80;;;11.40;99.90;;;;;;5113910;27;20006;-86
2023/01/11 05:31:38;;;;;;;16.92;4.80;;;11.50;99.90;;;;;;5115032;27;20035;-84
2023/01/11 05:34:07;;;;;;;18.45;5.30;;;11.40;99.90;;;;;;5133885;27;20760;-84
2023/01/11 05:36:34;;;;;;;16.08;4.00;;;11.30;99.90;;;;;;5134080;27;20129;-84
2023/01/11 05:39:00;;;;;;;14.45;3.80;;;11.30;99.90;;;;;;5115513;27;20371;-84
2023/01/11 05:41:26;;;;;;;18.20;4.63;;;11.30;99.90;;;;;;5108913;27;20101;-84
2023/01/11 05:46:40;;;;;;;20.55;5.43;;;11.20;99.90;;;;;;5120612;27;20071;-84
2023/01/11 05:49:06;;;;;;;16.58;4.95;;;11.20;99.90;;;;;;5095168;28;20032;-84
2023/01/11 05:51:33;;;;;;;18.77;5.03;;;11.20;99.90;;;;;;5095198;28;20047;-84
2023/01/11 05:54:01;;;;;;;18.88;5.05;;;11.30;99.90;;;;;;5121972;27;20122;-83
2023/01/11 05:56:27;;;;;;;19.13;5.68;;;11.20;99.90;;;;;;5107418;28;20123;-85
2023/01/11 05:58:52;;;;;;;19.63;4.75;;;11.20;99.90;;;;;;5095234;28;20510;-84
2023/01/11 06:01:20;;;;;;;18.08;4.80;;;11.20;99.90;;;;;;5119762;27;20031;-85
2023/01/11 06:03:46;;;;;;;19.20;4.55;;;11.20;99.90;;;;;;5111112;27;20050;-80
2023/01/11 06:06:14;;;;;;;22.45;6.05;;;11.10;99.90;;;;;;5132137;27;20035;-82
2023/01/11 06:08:42;;;;;;;17.20;4.60;;;11.10;99.90;;;;;;5148577;27;20433;-83
2023/01/11 06:11:08;;;;;;;18.67;5.40;;;11.10;99.90;;;;;;5115959;27;20054;-84
2023/01/11 06:13:34;;;;;;;22.10;5.63;;;11.10;99.90;;;;;;5101032;27;20043;-84
2023/01/11 06:16:04;;;;;;;19.90;5.43;;;11.00;99.90;;;;;;5113191;27;20063;-82
2023/01/11 06:18:37;;;;;;;16.20;4.40;;;11.00;99.90;;;;;;5114386;27;20887;-83
2023/01/11 06:21:03;;;;;;;20.80;5.03;;;11.00;99.90;;;;;;5106677;27;20074;-83
2023/01/11 06:23:32;;;;;;;22.10;5.03;;;10.90;99.90;;;;;;5144472;27;20043;-83
2023/01/11 06:26:03;;;;;;;19.38;4.93;;;11.00;99.90;;;;;;5132262;27;20049;-84
2023/01/11 06:28:29;;;;;;;;;;;10.90;99.90;;;;;;5132518;27;20035;-84
2023/01/11 06:30:56;;;;;;;23.27;5.65;;;10.90;99.90;;;;;;5131256;27;19922;-83
2023/01/11 06:33:23;;;;;;;20.27;5.40;;;10.90;99.90;;;;;;5113597;27;20039;-82
2023/01/11 06:35:50;;;;;;;21.58;5.88;;;10.80;99.90;;;;;;5112308;27;20666;-83
2023/01/11 06:38:16;;;;;;;23.20;5.70;;;10.80;99.90;;;;;;5113691;27;20031;-83
2023/01/11 06:40:43;;;;;;;20.25;6.22;;;10.80;99.90;;;;;;5096528;27;20040;-82
2023/01/11 06:43:09;;;;;;;20.00;6.45;;;10.80;99.90;;;;;;5113809;27;20588;-83
2023/01/11 06:45:38;;;;;;;21.73;5.18;;;10.70;99.90;;;;;;5098265;27;20031;-83
2023/01/11 06:48:04;;;;;;;22.45;6.43;;;10.70;99.90;;;;;;5132896;27;20049;-84
2023/01/11 06:50:30;;;;;;;20.80;5.78;;;10.70;99.90;;;;;;5111589;27;20446;-83
2023/01/11 06:52:57;;;;;;;20.63;5.65;;;10.70;99.90;;;;;;5132321;27;20054;-82
2023/01/11 06:55:26;;;;;;;25.83;7.07;;;10.70;99.90;;;;;;5087392;28;20047;-82
2023/01/11 06:57:51;;;;;;;24.33;6.10;;;10.60;99.90;;;;;;5111927;27;20039;-82
2023/01/11 07:00:18;;;;;;;21.17;6.22;;;10.60;99.90;;;;;;5098465;27;20445;-82
2023/01/11 07:02:47;;;;;;;25.30;6.78;;;10.50;99.90;;;;;;5113951;27;20035;-80
2023/01/11 07:05:14;;;;;;;27.58;6.72;;;10.50;99.90;;;;;;5129270;27;20039;-81
2023/01/11 07:07:41;;;;;;;27.02;6.05;;;10.60;99.90;;;;;;5111778;27;20043;-81
2023/01/11 07:10:09;;;;;;;23.70;5.95;;;10.50;99.90;;;;;;5107109;27;20125;-81
2023/01/11 07:12:35;;;;;;;28.48;7.50;;;10.40;99.90;;;;;;5143410;27;20032;-82
2023/01/11 07:15:02;;;;;;;24.65;7.22;;;10.40;99.90;;;;;;5118706;27;20038;-81
2023/01/11 07:17:28;;;;;;;28.25;6.80;;;10.40;99.90;;;;;;5112180;27;20042;-82
2023/01/11 07:19:54;;;;;;;24.70;7.50;;;10.40;99.90;;;;;;5112854;27;20515;-80
2023/01/11 07:22:21;;;;;;;28.67;7.53;;;10.40;99.90;;;;;;5130005;27;20035;-79
2023/01/11 07:24:47;;;;;;;27.20;6.80;;;10.40;99.90;;;;;;5107451;27;20130;-81
2023/01/11 07:27:13;;;;;;;28.48;7.68;;;10.40;99.90;;;;;;5130545;27;20035;-80
2023/01/11 07:29:38;;;;;;;26.13;7.38;;;10.50;99.90;;;;;;5110189;27;20023;-79
2023/01/11 07:32:04;;;;;;;28.63;7.13;;;10.50;99.90;;;;;;5110837;27;20744;-79
2023/01/11 07:34:30;;;;;;;27.50;6.53;;;10.60;99.90;;;;;;5131549;27;20072;-80
2023/01/11 07:36:56;;;;;;;28.13;7.15;;;10.60;99.90;;;;;;5131147;27;20522;-79
2023/01/11 07:39:21;;;;;;;24.30;6.00;;;10.60;99.90;;;;;;5125731;27;20038;-80
2023/01/11 07:44:31;;;;;;;29.55;7.10;;;10.60;99.90;;;;;;5130908;27;20479;-80
2023/01/11 07:46:57;;;;;;;26.98;6.38;;;10.50;99.90;;;;;;5130026;27;20083;-82
2023/01/11 07:49:22;;;;;;;22.48;6.10;;;10.50;99.90;;;;;;5130520;27;20402;-82
2023/01/11 07:51:50;;;;;;;22.83;5.65;;;10.50;99.90;;;;;;5129035;27;20035;-83
2023/01/11 07:54:17;;;;;;;20.80;5.53;;;10.50;99.90;;;;;;5126862;27;20059;-81
2023/01/11 07:56:42;;;;;;;25.33;5.80;;;10.40;99.90;;;;;;5108989;27;20046;-81
2023/01/11 07:59:08;;;;;;;21.75;5.78;;;10.40;99.90;;;;;;5127147;27;20062;-81
2023/01/11 08:01:34;;;;;;;22.45;5.90;;;10.40;99.90;;;;;;5130342;27;20035;-82
2023/01/11 08:04:00;;;;;;;25.98;6.70;;;10.30;99.90;;;;;;5108449;27;20191;-81
2023/01/11 08:06:25;;;;;;;25.73;5.55;;;10.30;99.90;;;;;;5093246;27;20046;-81
2023/01/11 08:08:51;;;;;;;21.08;5.70;;;10.30;99.90;;;;;;5110224;27;20544;-81
2023/01/11 08:16:45;;;;;;;19.35;4.93;;;10.10;99.90;;;;;;5142202;27;20043;-81
2023/01/11 08:19:10;;;;;;;20.38;4.95;;;10.10;99.90;;;;;;5121472;27;20153;-81
2023/01/11 08:21:36;;;;;;;16.27;5.20;;;10.00;99.90;;;;;;5110218;28;20035;-81
2023/01/11 08:24:01;;;;;;;21.73;5.13;;;10.00;99.90;;;;;;5108436;28;20063;-81
2023/01/11 08:26:27;;;;;;;17.05;3.88;;;10.00;99.90;;;;;;5092400;28;20044;-83
2023/01/11 08:28:53;;;;;;;18.35;4.80;;;10.00;99.90;;;;;;5106129;28;20406;-81
2023/01/11 08:31:20;;;;;;;16.08;4.10;;;9.90;99.90;;;;;;5111704;28;20490;-80
2023/01/11 08:33:47;;;;;;;18.52;4.78;;;9.90;99.90;;;;;;5146011;27;20121;-81
2023/01/11 08:36:12;;;;;;;15.25;3.70;;;9.80;99.90;;;;;;5140271;27;20046;-81
2023/01/11 08:38:38;;;;;;;16.25;3.13;;;9.80;99.90;;;;;;5111942;28;20035;-81
2023/01/11 08:41:11;;;;;;;14.02;3.58;;;9.80;99.90;;;;;;5108848;27;20043;-81
2023/01/11 08:43:40;;;;;;;14.13;3.33;;;9.80;99.90;;;;;;5144945;27;20079;-79
2023/01/11 08:46:06;;;;;;;14.65;3.67;;;9.80;99.90;;;;;;5114141;27;20484;-81
2023/01/11 08:48:32;;;;;;;14.40;4.13;;;9.80;99.90;;;;;;5126079;27;20491;-80
2023/01/11 08:50:58;;;;;;;12.07;3.30;;;9.80;99.90;;;;;;5114958;27;20039;-81
2023/01/11 08:53:23;;;;;;;17.38;3.75;;;9.70;99.90;;;;;;5106818;27;20035;-81
2023/01/11 08:55:50;;;;;;;10.40;3.25;;;9.70;99.90;;;;;;5107307;27;20035;-81
2023/01/11 08:58:16;;;;;;;13.82;3.28;;;9.70;99.90;;;;;;5110194;27;20081;-81
2023/01/11 09:00:42;;;;;;;14.65;3.35;;;9.70;99.90;;;;;;5115811;27;20070;-82
2023/01/11 09:03:10;;;;;;;16.52;3.38;;;9.60;99.90;;;;;;5130201;27;20039;-82
2023/01/11 09:05:37;;;;;;;14.93;3.63;;;9.60;99.90;;;;;;5130603;27;20035;-81
2023/01/11 09:08:03;;;;;;;15.20;3.72;;;9.60;99.90;;;;;;5116871;27;20039;-81
2023/01/11 09:10:29;;;;;;;15.27;3.58;;;9.60;99.90;;;;;;5111072;27;20121;-81
2023/01/11 09:12:56;;;;;;;17.85;4.28;;;9.60;99.90;;;;;;5113306;27;20047;-81
2023/01/11 09:15:25;;;;;;;17.52;3.40;;;9.50;99.90;;;;;;5134340;27;20059;-79
2023/01/11 09:17:51;;;;;;;16.80;4.07;;;9.50;99.90;;;;;;5114255;27;20042;-80
2023/01/11 09:20:18;;;;;;;18.13;4.18;;;9.50;99.90;;;;;;5113877;27;20039;-80
2023/01/11 09:22:50;;;;;;;20.00;4.20;;;9.50;99.90;;;;;;5088808;27;20114;-81
2023/01/11 09:25:17;;;;;;;21.52;4.60;;;9.50;99.90;;;;;;5107630;27;20134;-82
2023/01/11 09:27:47;;;;;;;21.17;4.70;;;9.40;99.90;;;;;;5109564;27;20106;-83
2023/01/11 09:30:20;;;;;;;17.88;4.53;;;9.40;99.90;;;;;;5134504;27;20035;-83
2023/01/11 09:32:46;;;;;;;20.98;5.43;;;9.50;99.90;;;;;;5115503;27;20035;-82
2023/01/11 09:35:14;;;;;;;21.27;5.35;;;9.50;99.90;;;;;;5115910;27;20424;-82
2023/01/11 09:37:43;;;;;;;15.68;4.85;;;9.50;99.90;;;;;;5113915;27;20436;-82
2023/01/11 09:40:21;;;;;;;18.67;4.82;;;9.50;99.90;;;;;;5127832;27;20035;-83
2023/01/11 09:42:59;;;;;;;17.15;4.32;;;9.40;99.90;;;;;;5098445;27;20543;-82
2023/01/11 09:45:27;;;;;;;17.85;4.53;;;9.40;99.90;;;;;;5108227;27;20051;-84
2023/01/11 09:48:03;;;;;;;16.52;4.13;;;9.40;99.90;;;;;;5105182;27;20067;-84
2023/01/11 09:50:32;;;;;;;19.10;5.25;;;9.40;99.90;;;;;;5102386;27;20030;-88
2023/01/11 09:53:06;;;;;;;15.13;3.75;;;9.40;99.90;;;;;;5090370;28;20038;-84
2023/01/11 09:55:35;;;;;;;17.25;4.45;;;9.40;99.90;;;;;;5113071;27;20043;-84
2023/01/11 09:58:21;;;;;;;14.98;4.28;;;9.40;99.90;;;;;;5124066;27;20387;-85
2023/01/11 10:00:55;;;;;;;15.82;3.78;;;9.30;99.90;;;;;;5114938;27;20047;-82
2023/01/11 10:03:35;;;;;;;20.67;4.78;;;9.30;99.90;;;;;;5132257;27;20075;-81
2023/01/11 10:06:27;;;;;;;20.02;4.95;;;9.30;99.90;;;;;;5132562;27;20063;-81
2023/01/11 10:09:09;;;;;;;;;;;9.30;99.90;;;;;;5113664;27;20054;-83
2023/01/11 10:12:03;;;;;;;18.38;4.75;;;9.40;99.90;;;;;;5094939;27;20350;-82
2023/01/11 10:14:55;;;;;;;18.17;4.82;;;9.40;99.90;;;;;;5105419;27;20058;-92
2023/01/11 10:17:24;;;;;;;18.75;5.30;;;9.40;99.90;;;;;;5135296;27;20038;-83
2023/01/11 10:20:00;;;;;;;17.48;4.40;;;9.60;99.90;;;;;;5113518;27;20429;-81
2023/01/11 10:22:32;;;;;;;17.83;4.63;;;9.60;99.90;;;;;;5125191;27;20121;-82
2023/01/11 10:25:24;;;;;;;19.95;4.68;;;9.70;99.90;;;;;;5125183;27;20103;-82
2023/01/11 10:28:03;;;;;;;15.13;4.03;;;9.70;99.90;;;;;;5109893;27;20047;-83
2023/01/11 10:37:11;;;;;;;17.15;4.38;;;9.80;99.90;;;;;;5130640;27;20351;-86
2023/01/11 10:43:15;;;;;;;17.10;4.47;;;10.00;99.90;;;;;;5125692;27;20415;-87
2023/01/11 10:46:04;;;;;;;16.10;4.47;;;10.00;99.90;;;;;;5126599;27;20036;-84
2023/01/11 10:48:37;;;;;;;15.25;4.57;;;10.10;99.90;;;;;;5131890;27;20031;-82
2023/01/11 10:51:26;;;;;;;16.92;5.10;;;10.10;99.90;;;;;;5132508;27;20432;-85
2023/01/11 10:54:00;;;;;;;16.13;4.35;;;10.10;99.90;;;;;;5113672;27;20518;-88
2023/01/11 10:57:24;;;;;;;18.73;4.60;;;10.10;99.90;;;;;;5103449;27;20483;-85
2023/01/11 11:00:17;;;;;;;16.02;4.70;;;10.00;99.90;;;;;;5016368;28;20101;-83
2023/01/11 11:03:01;;;;;;;18.25;4.85;;;10.00;99.90;;;;;;5011436;28;20057;-83
2023/01/11 11:05:58;;;;;;;15.73;4.78;;;10.00;99.90;;;;;;5039352;28;20038;-82
2023/01/11 11:08:34;;;;;;;16.15;4.05;;;10.00;99.90;;;;;;5027414;28;20480;-83
2023/01/11 11:11:11;;;;;;;16.98;4.15;;;10.10;99.90;;;;;;5011221;28;20041;-82
2023/01/11 11:14:03;;;;;;;15.70;4.32;;;10.10;99.90;;;;;;5035796;28;20045;-83
2023/01/11 11:16:38;;;;;;;;;;;10.20;99.90;;;;;;5012814;28;20061;-84
2023/01/11 11:19:04;;;;;;;18.55;4.72;;;10.10;99.90;;;;;;5009315;28;20352;-88
2023/01/11 11:21:34;;;;;;;15.23;3.88;;;10.20;99.90;;;;;;5011341;28;20042;-90
2023/01/11 11:24:21;;;;;;;17.20;4.17;;;10.20;99.90;;;;;;5026615;28;20093;-85
2023/01/11 11:26:56;;;;;;;16.33;3.70;;;10.20;99.90;;;;;;5027920;28;20050;-84
2023/01/11 11:29:28;;;;;;;17.15;3.67;;;10.10;99.90;;;;;;5028161;28;20060;-84
2023/01/11 11:31:55;;;;;;;13.80;3.80;;;10.20;99.90;;;;;;5008088;28;20045;-82
2023/01/11 11:34:26;;;;;;;16.17;4.25;;;10.20;99.90;;;;;;5015420;28;20073;-83
2023/01/11 11:36:52;;;;;;;19.58;4.53;;;10.20;99.90;;;;;;5105592;27;20132;-83
2023/01/11 11:39:30;;;;;;;16.33;4.10;;;10.20;99.90;;;;;;5115770;27;20035;-88
2023/01/11 11:42:07;;;;;;;14.82;4.10;;;10.30;99.90;;;;;;5096650;27;20039;-88
2023/01/11 11:44:34;;;;;;;15.55;3.80;;;10.30;99.90;;;;;;5105460;27;20495;-85
2023/01/11 11:47:14;;;;;;;13.18;3.80;;;10.30;99.90;;;;;;5129973;27;20050;-89
2023/01/11 11:49:41;;;;;;;15.95;4.75;;;10.30;99.90;;;;;;5109460;27;20038;-89
2023/01/11 11:52:12;;;;;;;16.10;4.68;;;10.30;99.90;;;;;;5094732;27;20117;-94
2023/01/11 11:54:42;;;;;;;13.13;4.03;;;10.30;99.90;;;;;;5133546;27;20288;-92
2023/01/11 11:57:37;;;;;;;18.88;4.53;;;10.30;99.90;;;;;;5093165;27;20035;-92
2023/01/11 12:00:21;;;;;;;15.23;4.10;;;10.30;99.90;;;;;;5094594;27;20145;-87
2023/01/11 12:03:03;;;;;;;18.08;4.55;;;10.30;99.90;;;;;;5120310;27;20047;-87
2023/01/11 12:05:29;;;;;;;15.77;3.95;;;10.20;99.90;;;;;;5104060;28;20036;-91
2023/01/11 12:07:55;;;;;;;16.08;4.13;;;10.20;99.90;;;;;;5128052;27;20039;-86
2023/01/11 12:10:24;;;;;;;16.15;4.45;;;10.20;99.90;;;;;;5130387;27;20128;-86
2023/01/11 12:12:54;;;;;;;16.30;4.13;;;10.10;99.90;;;;;;5131569;27;20088;-86
2023/01/11 12:15:28;;;;;;;15.63;3.88;;;10.10;99.90;;;;;;5112852;28;20032;-85
2023/01/11 12:18:12;;;;;;;14.90;3.88;;;10.10;99.90;;;;;;5095840;27;20035;-86
2023/01/11 12:20:40;;;;;;;17.08;3.83;;;10.10;99.90;;;;;;5113177;27;20035;-86
2023/01/11 12:23:26;;;;;;;16.15;4.45;;;10.20;99.90;;;;;;5112056;27;20421;-86
2023/01/11 12:26:10;;;;;;;16.13;4.80;;;10.20;99.90;;;;;;5131364;27;20524;-84
2023/01/11 12:29:05;;;;;;;14.27;3.60;;;10.20;99.90;;;;;;5113344;28;20462;-85
2023/01/11 12:32:04;;;;;;;13.90;4.18;;;10.20;99.90;;;;;;5095921;28;20491;-86
2023/01/11 12:34:53;;;;;;;13.95;3.80;;;10.20;99.90;;;;;;5112847;28;20039;-86
2023/01/11 12:37:40;;;;;;;16.10;4.18;;;10.20;99.90;;;;;;5145747;27;20042;-86
2023/01/11 12:40:47;;;;;;;16.08;4.18;;;10.30;99.90;;;;;;5147103;27;20522;-86
2023/01/11 12:43:27;;;;;;;17.08;4.25;;;10.30;99.90;;;;;;5030964;28;20394;-87
2023/01/11 12:46:14;;;;;;;14.50;4.03;;;10.30;99.90;;;;;;5014849;28;20041;-86
2023/01/11 12:49:17;;;;;;;14.68;3.47;;;10.30;99.90;;;;;;5031426;28;20057;-87
2023/01/11 12:52:02;;;;;;;13.95;3.53;;;10.40;99.90;;;;;;5030697;28;20041;-86
2023/01/11 12:54:53;;;;;;;14.93;4.22;;;10.40;99.90;;;;;;5031274;28;20127;-86
2023/01/11 12:57:18;;;;;;;19.58;4.60;;;10.30;99.90;;;;;;5030925;28;20044;-85
2023/01/11 13:00:16;;;;;;;17.65;4.53;;;10.20;99.90;;;;;;5047506;28;20448;-85
2023/01/11 13:03:04;;;;;;;18.63;4.82;;;10.20;99.90;;;;;;5014299;28;20059;-84
2023/01/11 13:05:52;;;;;;;17.77;4.30;;;10.20;99.90;;;;;;5030562;28;20068;-85
2023/01/11 13:08:48;;;;;;;17.58;3.97;;;10.10;99.90;;;;;;5030777;28;20204;-85
2023/01/11 13:11:34;;;;;;;18.30;4.10;;;10.10;99.90;;;;;;5047594;28;20052;-86
2023/01/11 13:14:12;;;;;;;17.00;3.95;;;10.20;99.90;;;;;;5073759;28;20055;-85
2023/01/11 13:16:47;;;;;;;17.58;4.20;;;10.30;99.90;;;;;;5112852;28;20100;-85
2023/01/11 13:19:25;;;;;;;18.67;4.68;;;10.30;99.90;;;;;;5130718;28;20042;-85
2023/01/11 13:21:53;;;;;;;18.35;4.13;;;10.40;99.90;;;;;;5130134;28;20047;-85
2023/01/11 13:24:25;;;;;;;18.33;4.15;;;10.50;99.90;;;;;;5130727;28;20082;-85
2023/01/11 13:26:53;;;;;;;21.75;4.72;;;10.40;99.90;;;;;;5112460;28;20038;-85
2023/01/11 13:29:26;;;;;;;17.83;4.10;;;10.40;99.90;;;;;;5132988;27;20035;-85
2023/01/11 13:31:54;;;;;;;17.95;4.22;;;10.40;99.90;;;;;;5116457;27;20039;-85
2023/01/11 13:34:28;;;;;;;15.57;4.40;;;10.40;99.90;;;;;;5115687;27;20047;-86
2023/01/11 13:37:01;;;;;;;21.15;4.63;;;10.30;99.90;;;;;;5134259;27;20031;-87